createdAt,value
2018-12-06T00:02:21.049Z,1.60
2018-12-06T00:04:48.655Z,2.07
2018-12-06T00:07:16.279Z,2.50
2018-12-06T00:09:43.909Z,2.23
2018-12-06T00:12:11.528Z,1.80
2018-12-06T00:14:39.136Z,2.57
2018-12-06T00:17:06.777Z,1.83
2018-12-06T00:19:34.363Z,1.90
2018-12-06T00:22:01.995Z,1.60
2018-12-06T00:24:29.611Z,1.80
2018-12-06T00:26:57.370Z,1.87
2018-12-06T00:29:25.127Z,2.10
2018-12-06T00:31:52.767Z,1.90
2018-12-06T00:34:20.357Z,1.67
2018-12-06T00:36:47.983Z,2.50
2018-12-06T00:39:15.624Z,2.80
2018-12-06T00:41:43.317Z,2.37
2018-12-06T00:44:30.016Z,1.83
2018-12-06T00:46:57.672Z,2.03
2018-12-06T00:49:25.275Z,1.83
2018-12-06T00:51:52.829Z,1.80
2018-12-06T00:54:20.428Z,1.83
2018-12-06T00:56:48.014Z,1.60
2018-12-06T00:59:15.657Z,1.87
2018-12-06T01:01:43.367Z,1.90
2018-12-06T01:04:11.051Z,1.93
2018-12-06T01:06:38.620Z,1.83
2018-12-06T01:09:06.318Z,1.60
2018-12-06T01:11:33.900Z,1.60
2018-12-06T01:14:01.617Z,1.80
2018-12-06T01:16:29.216Z,1.50
2018-12-06T01:18:56.792Z,1.77
2018-12-06T01:21:24.413Z,1.83
2018-12-06T01:23:52.154Z,1.70
2018-12-06T01:26:19.747Z,1.50
2018-12-06T01:28:47.368Z,1.70
2018-12-06T01:31:15.072Z,1.50
2018-12-06T01:33:42.713Z,1.70
2018-12-06T01:36:10.309Z,1.67
2018-12-06T01:38:37.922Z,1.73
2018-12-06T01:41:05.559Z,1.60
2018-12-06T01:43:33.176Z,2.13
2018-12-06T01:46:00.757Z,1.60
2018-12-06T01:48:28.859Z,1.70
2018-12-06T01:50:56.454Z,1.63
2018-12-06T01:53:24.254Z,1.60
2018-12-06T01:55:51.815Z,1.70
2018-12-06T01:58:19.467Z,1.93
2018-12-06T02:00:47.047Z,1.50
2018-12-06T02:03:14.614Z,1.70
2018-12-06T02:05:42.202Z,1.63
2018-12-06T02:08:09.825Z,1.60
2018-12-06T02:10:37.486Z,2.00
2018-12-06T02:13:05.079Z,1.50
2018-12-06T02:15:32.717Z,1.53
2018-12-06T02:18:00.325Z,1.83
2018-12-06T02:20:27.936Z,1.93
2018-12-06T02:22:55.551Z,1.70
2018-12-06T02:25:23.224Z,1.90
2018-12-06T02:27:50.783Z,1.97
2018-12-06T02:30:18.450Z,1.50
2018-12-06T02:32:46.030Z,1.57
2018-12-06T02:35:13.648Z,1.80
2018-12-06T02:37:41.271Z,1.77
2018-12-06T02:40:09.042Z,1.70
2018-12-06T02:42:36.664Z,1.30
2018-12-06T02:45:04.469Z,2.30
2018-12-06T02:47:32.201Z,1.80
2018-12-06T02:49:59.802Z,1.67
2018-12-06T02:52:27.640Z,1.40
2018-12-06T02:54:55.281Z,1.50
2018-12-06T02:57:22.871Z,1.50
2018-12-06T02:59:50.559Z,1.70
2018-12-06T03:02:18.236Z,1.47
2018-12-06T03:04:45.855Z,1.60
2018-12-06T03:07:13.545Z,1.80
2018-12-06T03:09:41.188Z,1.70
2018-12-06T03:12:08.850Z,1.40
2018-12-06T03:14:36.456Z,1.43
2018-12-06T03:17:04.673Z,1.80
2018-12-06T03:19:32.283Z,1.63
2018-12-06T03:21:59.895Z,1.53
2018-12-06T03:24:27.676Z,1.53
2018-12-06T03:26:55.252Z,1.53
2018-12-06T03:29:22.843Z,1.40
2018-12-06T03:31:50.455Z,1.30
2018-12-06T03:34:18.200Z,1.63
2018-12-06T03:36:47.686Z,1.80
2018-12-06T03:39:15.444Z,1.63
2018-12-06T03:41:43.116Z,1.43
2018-12-06T03:44:10.712Z,1.23
2018-12-06T03:46:38.393Z,1.27
2018-12-06T03:49:05.995Z,1.67
2018-12-06T03:51:33.634Z,1.60
2018-12-06T03:54:01.383Z,1.57
2018-12-06T03:56:29.006Z,1.60
2018-12-06T03:58:56.568Z,1.53
2018-12-06T04:01:24.215Z,1.40
2018-12-06T04:03:51.813Z,1.50
2018-12-06T04:06:19.425Z,1.30
2018-12-06T04:08:47.107Z,1.40
2018-12-06T04:11:14.723Z,1.43
2018-12-06T04:13:42.497Z,1.33
2018-12-06T04:16:10.065Z,1.47
2018-12-06T04:18:37.688Z,1.30
2018-12-06T04:21:05.362Z,1.60
2018-12-06T04:23:32.981Z,1.70
2018-12-06T04:26:00.662Z,1.70
2018-12-06T04:28:28.320Z,1.50
2018-12-06T04:30:55.937Z,1.40
2018-12-06T04:33:23.580Z,1.60
2018-12-06T04:35:51.207Z,1.27
2018-12-06T04:38:18.908Z,1.27
2018-12-06T04:40:46.535Z,1.37
2018-12-06T04:43:14.182Z,1.60
2018-12-06T04:45:41.834Z,1.47
2018-12-06T04:48:09.428Z,1.30
2018-12-06T04:50:37.174Z,1.43
2018-12-06T04:53:04.765Z,2.17
2018-12-06T04:55:32.357Z,1.30
2018-12-06T04:57:59.966Z,1.50
2018-12-06T05:00:27.747Z,1.70
2018-12-06T05:02:55.423Z,1.40
2018-12-06T05:05:23.165Z,1.73
2018-12-06T05:07:50.881Z,1.53
2018-12-06T05:10:18.457Z,1.60
2018-12-06T05:12:46.057Z,1.30
2018-12-06T05:15:13.694Z,1.13
2018-12-06T05:17:41.356Z,1.60
2018-12-06T05:20:09.055Z,1.17
2018-12-06T05:22:36.648Z,1.53
2018-12-06T05:25:05.021Z,1.60
2018-12-06T05:27:32.700Z,1.50
2018-12-06T05:30:00.287Z,2.27
2018-12-06T05:32:27.967Z,1.47
2018-12-06T05:34:55.605Z,1.30
2018-12-06T05:37:23.229Z,1.50
2018-12-06T05:39:50.854Z,1.33
2018-12-06T05:42:18.491Z,1.70
2018-12-06T05:44:46.100Z,1.77
2018-12-06T05:47:13.725Z,1.37
2018-12-06T05:49:41.645Z,1.93
2018-12-06T05:52:09.411Z,1.37
2018-12-06T05:54:39.856Z,1.63
2018-12-06T05:57:07.565Z,1.30
2018-12-06T05:59:35.239Z,1.50
2018-12-06T06:02:02.852Z,1.53
2018-12-06T06:04:30.507Z,1.83
2018-12-06T06:07:01.309Z,1.50
2018-12-06T06:09:29.389Z,1.37
2018-12-06T06:11:56.975Z,1.30
2018-12-06T06:14:24.558Z,1.10
2018-12-06T06:16:52.484Z,1.73
2018-12-06T06:19:20.259Z,1.60
2018-12-06T06:21:48.013Z,1.20
2018-12-06T06:24:15.655Z,2.23
2018-12-06T06:26:43.335Z,1.70
2018-12-06T06:29:10.927Z,1.90
2018-12-06T06:31:38.508Z,1.70
2018-12-06T06:34:06.109Z,2.20
2018-12-06T06:36:33.728Z,1.60
2018-12-06T06:39:01.477Z,3.90
2018-12-06T06:41:29.117Z,2.73
2018-12-06T06:43:56.753Z,3.10
2018-12-06T06:46:24.431Z,2.70
2018-12-06T06:48:52.097Z,2.17
2018-12-06T06:51:19.842Z,2.33
2018-12-06T06:53:47.452Z,1.90
2018-12-06T06:56:15.338Z,2.10
2018-12-06T06:58:42.991Z,2.00
2018-12-06T07:01:10.639Z,1.90
2018-12-06T07:03:38.371Z,2.30
2018-12-06T07:06:05.996Z,2.00
2018-12-06T07:08:33.636Z,2.20
2018-12-06T07:11:01.388Z,2.47
2018-12-06T07:13:29.010Z,2.00
2018-12-06T07:15:56.652Z,2.20
2018-12-06T07:18:24.402Z,2.37
2018-12-06T07:20:51.995Z,2.13
2018-12-06T07:23:19.598Z,2.50
2018-12-06T07:25:47.237Z,2.63
2018-12-06T07:28:15.682Z,2.77
2018-12-06T07:30:43.372Z,2.87
2018-12-06T07:33:11.012Z,2.50
2018-12-06T07:35:38.658Z,2.60
2018-12-06T07:38:06.267Z,3.47
2018-12-06T07:40:33.984Z,3.53
2018-12-06T07:43:01.535Z,3.63
2018-12-06T07:45:29.145Z,2.30
2018-12-06T07:47:56.773Z,2.90
2018-12-06T07:50:24.363Z,2.23
2018-12-06T07:52:51.940Z,2.73
2018-12-06T07:55:19.701Z,2.63
2018-12-06T07:57:47.280Z,2.90
2018-12-06T08:00:14.832Z,2.50
2018-12-06T08:02:42.470Z,2.30
2018-12-06T08:05:10.067Z,2.27
2018-12-06T08:07:37.750Z,2.63
2018-12-06T08:10:06.350Z,2.80
2018-12-06T08:12:34.095Z,2.40
2018-12-06T08:15:01.750Z,2.87
2018-12-06T08:17:29.415Z,2.23
2018-12-06T08:19:57.123Z,3.40
2018-12-06T08:22:24.757Z,2.50
2018-12-06T08:24:54.645Z,3.60
2018-12-06T08:27:29.929Z,2.20
2018-12-06T08:29:57.637Z,2.40
2018-12-06T08:32:25.291Z,2.33
2018-12-06T08:34:53.016Z,2.10
2018-12-06T08:37:20.713Z,2.60
2018-12-06T08:39:48.350Z,2.13
2018-12-06T08:42:15.931Z,1.70
2018-12-06T08:44:58.733Z,3.13
2018-12-06T08:47:26.930Z,2.30
2018-12-06T08:49:54.609Z,2.23
2018-12-06T08:52:22.247Z,2.07
2018-12-06T08:54:50.038Z,2.50
2018-12-06T08:57:17.726Z,1.93
2018-12-06T08:59:45.395Z,2.00
2018-12-06T09:02:13.124Z,2.50
2018-12-06T09:04:40.775Z,2.77
2018-12-06T09:07:08.407Z,2.63
2018-12-06T09:09:36.033Z,1.90
2018-12-06T09:12:04.009Z,2.70
2018-12-06T09:14:31.672Z,2.33
2018-12-06T09:16:59.385Z,2.40
2018-12-06T09:19:27.013Z,2.33
2018-12-06T09:21:54.637Z,1.93
2018-12-06T09:27:14.661Z,2.67
2018-12-06T09:29:42.399Z,2.23
2018-12-06T09:32:10.157Z,2.30
2018-12-06T09:34:47.701Z,1.73
2018-12-06T09:37:15.361Z,1.83
2018-12-06T09:39:52.972Z,2.00
2018-12-06T09:42:20.672Z,2.43
2018-12-06T09:44:48.292Z,2.00
2018-12-06T09:47:15.927Z,2.20
2018-12-06T09:49:44.354Z,2.30
2018-12-06T09:52:12.004Z,1.90
2018-12-06T09:54:39.669Z,2.07
2018-12-06T09:57:07.308Z,2.23
2018-12-06T09:59:35.032Z,2.03
2018-12-06T10:02:02.676Z,2.30
2018-12-06T10:04:30.329Z,2.10
2018-12-06T10:06:58.074Z,2.00
2018-12-06T10:09:25.777Z,2.27
2018-12-06T10:11:53.479Z,1.97
2018-12-06T10:14:21.170Z,2.10
2018-12-06T10:16:48.821Z,2.30
2018-12-06T10:19:30.558Z,2.03
2018-12-06T10:21:58.318Z,2.37
2018-12-06T10:24:25.979Z,2.40
2018-12-06T10:26:53.623Z,2.40
2018-12-06T10:29:23.556Z,1.70
2018-12-06T10:31:51.408Z,2.40
2018-12-06T10:34:19.083Z,2.00
2018-12-06T10:36:46.771Z,2.40
2018-12-06T10:39:14.489Z,2.30
2018-12-06T10:41:46.870Z,2.17
2018-12-06T10:44:27.404Z,2.20
2018-12-06T10:46:55.135Z,2.00
2018-12-06T10:49:22.752Z,2.60
2018-12-06T10:51:50.461Z,1.90
2018-12-06T10:54:18.154Z,2.30
2018-12-06T10:56:45.748Z,1.80
2018-12-06T10:59:13.509Z,2.20
2018-12-06T11:01:47.110Z,2.20
2018-12-06T11:04:14.791Z,2.50
2018-12-06T11:06:42.430Z,2.50
2018-12-06T11:09:10.277Z,2.33
2018-12-06T11:11:38.043Z,2.40
2018-12-06T11:14:05.955Z,2.30
2018-12-06T11:16:33.815Z,2.20
2018-12-06T11:19:01.525Z,2.50
2018-12-06T11:21:34.235Z,2.10
2018-12-06T11:24:01.836Z,2.50
2018-12-06T11:26:57.746Z,3.07
2018-12-06T11:29:25.562Z,2.50
2018-12-06T11:31:53.460Z,2.30
2018-12-06T11:34:21.221Z,2.60
2018-12-06T11:36:49.008Z,2.70
2018-12-06T11:39:16.648Z,2.70
2018-12-06T11:41:45.554Z,2.47
2018-12-06T11:44:13.784Z,2.77
2018-12-06T11:46:43.292Z,2.53
2018-12-06T11:49:11.008Z,3.70
2018-12-06T12:20:31.307Z,2.33
2018-12-06T12:22:59.132Z,3.10
2018-12-06T12:25:26.890Z,2.83
2018-12-06T12:27:54.552Z,2.60
2018-12-06T12:30:22.699Z,2.60
2018-12-06T12:32:50.948Z,2.47
2018-12-06T12:35:19.104Z,2.60
2018-12-06T12:37:47.255Z,3.40
2018-12-06T12:40:15.319Z,2.47
2018-12-06T12:42:43.648Z,2.67
2018-12-06T12:45:14.067Z,3.43
2018-12-06T13:01:09.903Z,2.53
2018-12-06T13:06:22.210Z,2.90
2018-12-06T13:08:51.415Z,2.90
2018-12-06T13:11:20.955Z,2.30
2018-12-06T13:13:49.168Z,2.33
2018-12-06T13:16:17.814Z,2.23
2018-12-06T13:18:45.835Z,3.70
2018-12-06T13:21:13.912Z,3.60
2018-12-06T13:23:41.932Z,2.83
2018-12-06T13:26:10.130Z,2.90
2018-12-06T13:28:39.244Z,2.60
2018-12-06T13:31:07.528Z,3.00
2018-12-06T13:33:35.831Z,2.93
2018-12-06T13:36:04.140Z,3.20
2018-12-06T13:38:32.287Z,2.40
2018-12-06T13:41:00.415Z,2.60
2018-12-06T13:43:29.428Z,2.87
2018-12-06T13:45:57.679Z,2.60
2018-12-06T13:48:26.047Z,2.73
2018-12-06T13:50:54.258Z,3.00
2018-12-06T13:53:22.399Z,3.13
2018-12-06T13:55:50.632Z,2.63
2018-12-06T13:58:19.119Z,3.00
2018-12-06T14:00:48.031Z,2.80
2018-12-06T14:03:16.522Z,3.30
2018-12-06T14:05:44.621Z,2.93
2018-12-06T14:08:12.905Z,3.30
2018-12-06T14:10:41.024Z,3.00
2018-12-06T14:13:09.114Z,4.00
2018-12-06T14:15:37.269Z,3.37
2018-12-06T14:18:05.307Z,3.30
2018-12-06T14:20:33.453Z,2.93
2018-12-06T14:23:01.597Z,3.53
2018-12-06T14:25:29.817Z,3.70
2018-12-06T14:27:57.952Z,2.63
2018-12-06T14:30:26.113Z,3.67
2018-12-06T14:32:54.325Z,3.27
2018-12-06T14:35:23.122Z,3.50
2018-12-06T14:37:51.279Z,3.30
2018-12-06T14:40:19.408Z,3.50
2018-12-06T14:42:47.530Z,2.87
2018-12-06T14:45:15.639Z,3.20
2018-12-06T14:47:43.725Z,3.07
2018-12-06T14:50:11.398Z,3.00
2018-12-06T14:52:39.043Z,3.00
2018-12-06T14:55:06.672Z,3.40
2018-12-06T14:57:34.307Z,2.80
2018-12-06T15:00:03.378Z,3.17
2018-12-06T15:02:31.081Z,3.40
2018-12-06T15:04:58.733Z,3.17
2018-12-06T15:07:26.401Z,2.37
2018-12-06T15:09:54.009Z,3.03
2018-12-06T15:12:21.631Z,2.67
2018-12-06T15:14:49.314Z,2.43
2018-12-06T15:17:16.927Z,2.40
2018-12-06T15:19:44.540Z,3.10
2018-12-06T15:22:13.486Z,2.60
2018-12-06T15:24:41.388Z,3.00
2018-12-06T15:27:08.996Z,2.50
2018-12-06T15:29:36.620Z,2.40
2018-12-06T15:32:04.380Z,3.00
2018-12-06T15:34:32.073Z,2.47
2018-12-06T15:36:59.676Z,2.50
2018-12-06T15:39:27.304Z,2.90
2018-12-06T15:41:54.898Z,2.13
2018-12-06T15:44:22.662Z,2.57
2018-12-06T15:46:50.611Z,2.77
2018-12-06T15:49:18.489Z,2.97
2018-12-06T15:51:46.098Z,2.73
2018-12-06T15:54:13.692Z,2.50
2018-12-06T15:56:41.365Z,2.60
2018-12-06T15:59:09.036Z,2.90
2018-12-06T16:01:36.640Z,3.00
2018-12-06T16:04:04.256Z,2.77
2018-12-06T16:06:31.980Z,2.03
2018-12-06T16:08:59.668Z,2.70
2018-12-06T16:11:27.405Z,2.97
2018-12-06T16:13:55.011Z,2.87
2018-12-06T16:16:22.592Z,2.50
2018-12-06T16:18:50.190Z,2.13
2018-12-06T16:21:17.819Z,2.17
2018-12-06T16:23:45.577Z,3.00
2018-12-06T16:26:13.196Z,2.30
2018-12-06T16:28:40.832Z,2.60
2018-12-06T16:31:08.521Z,2.17
2018-12-06T16:33:36.123Z,2.57
2018-12-06T16:36:03.839Z,3.63
2018-12-06T16:38:31.503Z,2.50
2018-12-06T16:40:59.114Z,2.40
2018-12-06T16:43:26.751Z,2.63
2018-12-06T16:45:54.387Z,2.20
2018-12-06T16:48:22.072Z,2.80
2018-12-06T16:50:49.690Z,2.70
2018-12-06T16:53:17.335Z,2.70
2018-12-06T16:55:45.011Z,2.47
2018-12-06T16:58:12.631Z,2.30
2018-12-06T17:00:40.259Z,2.43
2018-12-06T17:03:08.036Z,2.20
2018-12-06T17:05:35.688Z,2.07
2018-12-06T17:08:03.437Z,2.50
2018-12-06T17:10:31.062Z,2.63
2018-12-06T17:12:58.633Z,2.43
2018-12-06T17:15:26.397Z,2.33
2018-12-06T17:17:54.018Z,2.23
2018-12-06T17:20:21.654Z,2.33
2018-12-06T17:22:49.465Z,2.80
2018-12-06T17:25:17.034Z,2.53
2018-12-06T17:27:44.627Z,2.90
2018-12-06T17:30:13.782Z,2.80
2018-12-06T17:32:41.722Z,2.30
2018-12-06T17:35:09.430Z,2.10
2018-12-06T17:37:37.065Z,2.37
2018-12-06T17:40:04.720Z,2.70
2018-12-06T17:42:32.309Z,2.30
2018-12-06T17:44:59.922Z,2.10
2018-12-06T17:47:27.541Z,2.70
2018-12-06T17:49:55.226Z,2.13
2018-12-06T17:52:22.899Z,2.27
2018-12-06T17:54:50.512Z,2.07
2018-12-06T17:57:18.156Z,2.70
2018-12-06T17:59:45.754Z,2.50
2018-12-06T18:02:13.365Z,2.43
2018-12-06T18:04:41.004Z,2.67
2018-12-06T18:07:09.874Z,2.20
2018-12-06T18:09:37.471Z,2.70
2018-12-06T18:12:05.228Z,2.50
2018-12-06T18:14:33.060Z,2.80
2018-12-06T18:17:00.671Z,2.77
2018-12-06T18:19:28.269Z,3.17
2018-12-06T18:21:56.029Z,2.80
2018-12-06T18:24:23.648Z,2.60
2018-12-06T18:26:51.333Z,3.20
2018-12-06T18:29:19.077Z,2.70
2018-12-06T18:31:46.697Z,2.30
2018-12-06T18:34:14.437Z,2.40
2018-12-06T18:36:42.222Z,2.87
2018-12-06T18:39:09.790Z,2.73
2018-12-06T18:41:37.440Z,2.70
2018-12-06T18:44:05.037Z,2.50
2018-12-06T18:46:32.701Z,2.60
2018-12-06T18:49:00.304Z,2.70
2018-12-06T18:51:27.910Z,3.70
2018-12-06T18:53:55.538Z,2.83
2018-12-06T18:56:23.406Z,3.53
2018-12-06T18:58:51.212Z,3.20
2018-12-06T19:01:18.804Z,3.20
2018-12-06T19:03:46.352Z,3.03
2018-12-06T19:06:14.332Z,2.73
2018-12-06T19:08:42.030Z,3.50
2018-12-06T19:11:09.749Z,3.13
2018-12-06T19:13:37.344Z,3.70
2018-12-06T19:16:05.094Z,3.53
2018-12-06T19:18:32.796Z,3.60
2018-12-06T19:21:00.439Z,3.50
2018-12-06T19:23:28.085Z,3.20
2018-12-06T19:25:55.824Z,3.50
2018-12-06T19:28:23.798Z,3.23
2018-12-06T19:30:51.532Z,3.40
2018-12-06T19:33:19.165Z,3.80
2018-12-06T19:35:46.750Z,3.70
2018-12-06T19:38:14.463Z,3.37
2018-12-06T19:40:42.090Z,3.23
2018-12-06T19:43:09.737Z,3.77
2018-12-06T19:45:37.380Z,2.67
2018-12-06T19:48:04.999Z,2.90
2018-12-06T19:50:32.617Z,3.20
2018-12-06T19:53:00.317Z,3.30
2018-12-06T19:55:27.930Z,3.00
2018-12-06T19:57:55.599Z,3.40
2018-12-06T20:00:23.204Z,3.30
2018-12-06T20:02:50.827Z,3.20
2018-12-06T20:05:18.468Z,2.97
2018-12-06T20:07:46.090Z,3.83
2018-12-06T20:10:13.757Z,5.20
2018-12-06T20:12:41.536Z,23.53
2018-12-06T20:15:09.174Z,89.67
2018-12-06T20:17:36.957Z,138.77
2018-12-06T20:20:05.828Z,124.80
2018-12-06T20:22:33.519Z,105.77
2018-12-06T20:25:01.163Z,110.20
2018-12-06T20:27:28.808Z,108.67
2018-12-06T20:29:56.538Z,109.07
2018-12-06T20:32:24.185Z,102.00
2018-12-06T20:34:51.867Z,100.73
2018-12-06T20:37:19.948Z,107.53
2018-12-06T20:39:47.627Z,99.27
2018-12-06T20:42:15.297Z,107.13
2018-12-06T20:44:43.023Z,96.80
2018-12-06T20:47:15.203Z,94.27
2018-12-06T20:49:42.829Z,96.13
2018-12-06T20:52:10.474Z,94.97
2018-12-06T20:54:38.195Z,92.70
2018-12-06T20:57:05.792Z,93.20
2018-12-06T20:59:33.517Z,91.93
2018-12-06T21:02:01.177Z,87.17
2018-12-06T21:04:28.864Z,88.67
2018-12-06T21:06:56.498Z,89.47
2018-12-06T21:09:24.177Z,88.57
2018-12-06T21:11:51.791Z,86.23
2018-12-06T21:14:22.265Z,87.47
2018-12-06T21:16:49.262Z,85.00
2018-12-06T21:19:16.915Z,87.13
2018-12-06T21:21:44.666Z,80.50
2018-12-06T21:24:12.318Z,84.63
2018-12-06T21:26:40.110Z,80.40
2018-12-06T21:29:07.746Z,80.20
2018-12-06T21:31:35.401Z,80.00
2018-12-06T21:34:03.182Z,80.30
2018-12-06T21:36:30.820Z,78.80
2018-12-06T21:38:58.460Z,78.00
2018-12-06T21:41:26.131Z,74.40
2018-12-06T21:43:53.831Z,76.77
2018-12-06T21:46:21.466Z,73.67
2018-12-06T21:48:49.161Z,72.63
2018-12-06T21:51:16.865Z,75.87
2018-12-06T21:53:44.620Z,73.40
2018-12-06T21:56:12.261Z,69.87
2018-12-06T21:58:39.936Z,72.87
2018-12-06T22:01:07.650Z,68.40
2018-12-06T22:03:35.300Z,67.70
2018-12-06T22:07:06.003Z,69.83
2018-12-06T22:09:33.650Z,67.87
2018-12-06T22:12:01.277Z,67.33
2018-12-06T22:14:29.136Z,66.80
2018-12-06T22:16:56.814Z,65.73
2018-12-06T22:19:24.449Z,61.10
2018-12-06T22:21:52.125Z,65.43
2018-12-06T22:24:19.839Z,63.07
2018-12-06T22:26:47.474Z,59.23
2018-12-06T22:29:15.135Z,61.27
2018-12-06T22:31:42.806Z,61.80
2018-12-06T22:34:10.422Z,63.30
2018-12-06T22:36:38.129Z,60.07
2018-12-06T22:39:06.844Z,57.73
2018-12-06T22:41:34.532Z,58.40
2018-12-06T22:44:02.237Z,57.07
2018-12-06T22:46:29.926Z,58.23
2018-12-06T22:48:57.608Z,57.23
2018-12-06T22:51:25.284Z,57.40
2018-12-06T22:53:52.877Z,57.43
2018-12-06T22:56:20.582Z,57.30
2018-12-06T22:58:48.131Z,55.40
2018-12-06T23:01:17.924Z,56.23
2018-12-06T23:03:45.581Z,55.07
2018-12-06T23:06:13.209Z,55.90
2018-12-06T23:08:40.899Z,52.87
2018-12-06T23:11:08.558Z,56.23
2018-12-06T23:13:36.251Z,55.37
2018-12-06T23:16:03.901Z,54.90
2018-12-06T23:18:31.607Z,53.33
2018-12-06T23:20:59.329Z,50.93
2018-12-06T23:23:26.976Z,51.17
2018-12-06T23:25:54.684Z,51.50
2018-12-06T23:28:22.318Z,50.40
2018-12-06T23:30:49.964Z,48.03
2018-12-06T23:33:17.681Z,48.40
2018-12-06T23:35:45.317Z,49.43
2018-12-06T23:38:12.961Z,47.60
2018-12-06T23:40:40.601Z,47.33
2018-12-06T23:43:08.363Z,48.20
2018-12-06T23:45:36.126Z,49.07
2018-12-06T23:48:03.747Z,45.23
2018-12-06T23:50:31.462Z,45.77
2018-12-06T23:52:59.119Z,49.70
2018-12-06T23:55:26.773Z,44.20
2018-12-06T23:57:54.602Z,44.60
